Portada
METAR-TAF:

METAR-TAF

Aeroports :

Managua, Nicaragua

latitud: 12-09N, longitud: 086-10W, altitud: 50 m

Observació

L'informe es va fer fa 55 minuts, a les 18:00 UTC
Vent 14 kt del Est/Nord-Est
Temperatura 32°C
Humitat 63%
Pressió 1011 hPa
Visibilitat 10 km o més
Núvols disperses a una alçada de 2500 ft

METAR: MNMG 141800Z 07014KT 9999 SCT025 32/24 Q1010 A2985 2AC070 2CI300 NOSIG

Hora: 12:55 (18:55 UTC)

Pronòstic

L'informe es va fer fa 3 hores i 18 minuts, a les 15:37 UTC
Pronòstic vàlid del 14 a les 18 UTC al 15 a les 18 UTC
Vent 10 kt del Sud/Sud-Est
Visibilitat 10 km o més
Escasses núvols a una alçada de 2200 ft
Núvols disperses a una alçada de 7000 ft
Temporalment
l' 14 a les 20 UTC al 15 a les 00 UTC
Vent 12 kt amb direcció variable amb ràfegues de 22 kt
Visibilitat: 7000 m
Núvols disperses a una alçada de 2000 ft, Cumulonimbus.
Núvols disperses a una alçada de 2200 ft
Temporalment
l' 15 a les 01 UTC al 15 a les 09 UTC
Vent 6 kt del Sud-Est
Visibilitat: 9000 m
Núvols disperses a una alçada de 2200 ft
Núvols disperses a una alçada de 30000 ft
plugim
Evolucionant progressivament
l' 15 a les 10 UTC al 15 a les 15 UTC
Vent 8 kt del Est
Visibilitat: 6000 m
Escasses núvols a una alçada de 2300 ft
Núvols disperses a una alçada de 8000 ft
Escasses núvols a una alçada de 1400 ft, Cumulonimbus.
Cel ennuvolat a una alçada de 1600 ft, Cumulus congestus.
en les proximitats, pluja
Evolucionant progressivament
l' 14 a les 19 UTC al 15 a les 21 UTC
Vent 6 kt del Est/Nord-Est
Visibilitat: 5000 m
Temporalment
l' 14 a les 22 UTC al 14 a les 23 UTC
Visibilitat: 7000 m
Cel ennuvolat a una alçada de 1600 ft

TAF: MNMG 141537Z 1418/1518 16010KT 9999 FEW022 SCT070 TEMPO 1420/1500 VRB12G22KT 7000 TSRA/DZ SCT020CB SCT022 TEMPO 1501/1509 13006KT 9000 DZ SCT022 SCT300 BECMG 1510/1515 11008KT 9999 FEW023 SCT080 MNPC 141537Z 1418/1518 09008KT 6000 VCRA FEW014CB BKN016TCU BECMG 1419/1521 07006KT 5000 TSRA/DZ TEMPO 1422/1423 7000 -DZ/HZ BKN016

Observacions i pronòstics meteorològics de més de 4000 aeroports (METAR i TAF).

Les estacions disponibles són els punts grocs i vermells al mapa.

Posi el ratolí al punt desitjat per veure el nom de l'estació.

Feu clic per veure les observacions i els pronòstics meteorològics.

Per canviar el mapa: feu clic els botons verds amb una creu de color negre per apropar; al botó verd amb un guió per allunyar la imatge; o en les fletxes verdes per a mapes adjacents.


METAR-TAF: